Terminal Aerodrome Forecast
Issued by NWS Duluth, MN

Home | Current Version | Previous Version | Text Only | Print | Product List | Glossary On
Versions: 1 2 3 4 5 6 7 8 9 10 11 12 13 14 15 16 17 18 19 20 21 22 23 24 25 26 27 28
000
FTUS43 KDLH 302200 AAB
TAFDLH
TAF AMD
KDLH 302255Z 3023/3118 33015G26KT P6SM SCT025 BKN040
      TEMPO 3023/3101 34020G35KT 1SM -SHSN BKN015
     FM310200 35020G28KT P6SM SCT025
     FM310800 36014G21KT P6SM SCT015
     FM311600 01011G18KT P6SM SKC=

USA.gov is the U.S. government's official web portal to all federal, state and local government web resources and services.